createdAt,value
2023-03-19T00:01:12.801Z,7.65
2023-03-19T00:05:14.709Z,5.65
2023-03-19T00:09:16.766Z,8.48
2023-03-19T00:13:19.549Z,5.82
2023-03-19T00:17:21.565Z,10.05
2023-03-19T00:21:25.865Z,8.68
2023-03-19T00:25:27.755Z,10.15
2023-03-19T00:29:29.751Z,5.57
2023-03-19T00:33:31.388Z,8.60
2023-03-19T00:37:33.522Z,8.25
2023-03-19T00:41:35.191Z,6.80
2023-03-19T00:45:36.912Z,4.00
2023-03-19T00:49:38.603Z,5.53
2023-03-19T00:53:42.248Z,9.57
2023-03-19T00:57:44.022Z,8.02
2023-03-19T01:01:45.736Z,10.30
2023-03-19T01:09:51.058Z,7.00
2023-03-19T01:13:52.657Z,5.07
2023-03-19T01:17:54.316Z,4.50
2023-03-19T01:21:55.925Z,4.07
2023-03-19T01:25:58.310Z,7.75
2023-03-19T01:30:00.170Z,7.82
2023-03-19T01:34:02.141Z,8.80
2023-03-19T01:38:03.845Z,7.22
2023-03-19T01:42:06.601Z,9.82
2023-03-19T01:46:25.699Z,7.62
2023-03-19T01:50:39.867Z,7.10
2023-03-19T01:54:41.837Z,5.55
2023-03-19T01:58:46.235Z,4.95
2023-03-19T02:02:52.239Z,6.85
2023-03-19T02:06:58.215Z,6.07
2023-03-19T02:11:01.290Z,6.85
2023-03-19T02:15:03.131Z,7.80
2023-03-19T02:19:09.547Z,5.20
2023-03-19T02:23:32.376Z,6.13
2023-03-19T02:27:34.323Z,12.75
2023-03-19T02:31:36.370Z,9.40
2023-03-19T02:35:38.876Z,7.32
2023-03-19T02:40:04.414Z,6.47
2023-03-19T02:44:07.739Z,7.22
2023-03-19T02:48:09.406Z,9.32
2023-03-19T02:52:11.453Z,10.23
2023-03-19T02:56:13.372Z,7.53
2023-03-19T03:00:17.497Z,6.75
2023-03-19T03:04:19.170Z,9.55
2023-03-19T03:08:20.892Z,5.18
2023-03-19T03:12:22.618Z,9.90
2023-03-19T03:16:25.752Z,5.68
2023-03-19T03:20:27.562Z,10.95
2023-03-19T03:24:29.354Z,6.90
2023-03-19T03:28:31.032Z,7.85
2023-03-19T03:32:32.706Z,6.62
2023-03-19T03:36:34.359Z,7.93
2023-03-19T03:40:37.379Z,6.35
2023-03-19T03:44:39.155Z,5.43
2023-03-19T03:48:41.046Z,8.18
2023-03-19T03:52:42.935Z,8.48
2023-03-19T03:56:44.681Z,7.07
2023-03-19T04:00:47.739Z,7.22
2023-03-19T04:04:49.372Z,6.10
2023-03-19T04:08:51.712Z,5.80
2023-03-19T04:12:53.369Z,5.57
2023-03-19T04:16:55.181Z,9.82
2023-03-19T04:20:57.634Z,5.30
2023-03-19T04:24:59.467Z,6.68
2023-03-19T04:29:01.130Z,9.57
2023-03-19T04:33:04.676Z,7.32
2023-03-19T04:37:06.352Z,9.77
2023-03-19T04:41:08.894Z,7.50
2023-03-19T04:45:11.108Z,6.40
2023-03-19T04:49:13.082Z,4.68
2023-03-19T04:53:14.870Z,7.22
2023-03-19T04:57:16.617Z,3.87
2023-03-19T05:01:18.394Z,6.85
2023-03-19T05:05:20.045Z,4.97
2023-03-19T05:09:21.685Z,6.03
2023-03-19T05:13:23.313Z,6.47
2023-03-19T05:17:25.194Z,5.05
2023-03-19T05:21:27.508Z,9.57
2023-03-19T05:25:30.086Z,3.97
2023-03-19T05:29:31.768Z,4.93
2023-03-19T05:33:33.615Z,6.25
2023-03-19T05:37:35.337Z,5.15
2023-03-19T05:41:37.133Z,5.47
2023-03-19T05:45:38.898Z,3.83
2023-03-19T05:49:40.605Z,4.95
2023-03-19T05:53:42.242Z,4.22
2023-03-19T05:57:44.204Z,4.30
2023-03-19T06:01:45.899Z,5.68
2023-03-19T06:05:50.717Z,4.45
2023-03-19T06:09:52.360Z,5.10
2023-03-19T06:13:54.013Z,3.58
2023-03-19T06:17:55.826Z,5.60
2023-03-19T06:21:57.524Z,5.70
2023-03-19T06:25:59.188Z,5.72
2023-03-19T06:30:00.845Z,5.90
2023-03-19T06:34:02.490Z,4.37
2023-03-19T06:38:04.158Z,6.62
2023-03-19T06:42:06.045Z,5.97
2023-03-19T06:46:11.278Z,3.75
2023-03-19T06:50:16.238Z,4.55
2023-03-19T06:54:17.945Z,7.65
2023-03-19T06:58:19.870Z,5.07
2023-03-19T07:02:22.102Z,4.68
2023-03-19T07:06:24.012Z,5.68
2023-03-19T07:10:25.859Z,4.18
2023-03-19T07:14:27.634Z,4.75
2023-03-19T07:18:29.730Z,7.07
2023-03-19T07:22:31.385Z,6.45
2023-03-19T07:26:33.147Z,7.05
2023-03-19T07:30:35.860Z,3.80
2023-03-19T07:34:37.696Z,7.22
2023-03-19T07:38:39.384Z,4.32
2023-03-19T07:42:41.887Z,4.47
2023-03-19T07:46:44.449Z,4.07
2023-03-19T07:50:46.120Z,3.90
2023-03-19T07:54:47.835Z,3.25
2023-03-19T07:58:49.485Z,4.97
2023-03-19T08:02:51.254Z,3.45
2023-03-19T08:06:53.791Z,4.57
2023-03-19T08:10:56.133Z,2.90
2023-03-19T08:14:57.968Z,3.28
2023-03-19T08:18:59.636Z,4.40
2023-03-19T08:23:01.380Z,3.40
2023-03-19T08:27:03.712Z,3.62
2023-03-19T08:31:13.657Z,3.00
2023-03-19T08:35:15.661Z,4.97
2023-03-19T08:39:17.347Z,4.43
2023-03-19T08:43:19.012Z,3.75
2023-03-19T08:47:24.176Z,6.28
2023-03-19T08:51:26.287Z,3.47
2023-03-19T08:55:27.959Z,3.87
2023-03-19T08:59:30.951Z,3.10
2023-03-19T09:03:33.669Z,2.80
2023-03-19T09:07:35.371Z,3.15
2023-03-19T09:11:37.099Z,3.37
2023-03-19T09:15:38.784Z,3.10
2023-03-19T09:19:41.532Z,3.22
2023-03-19T09:23:43.315Z,3.15
2023-03-19T09:27:44.966Z,4.60
2023-03-19T09:31:46.863Z,3.65
2023-03-19T09:35:53.546Z,2.92
2023-03-19T09:39:55.200Z,2.67
2023-03-19T09:43:59.901Z,5.55
2023-03-19T09:48:07.425Z,3.75
2023-03-19T09:52:43.402Z,3.90
2023-03-19T09:56:45.163Z,3.60
2023-03-19T10:00:49.804Z,5.62
2023-03-19T10:05:00.886Z,4.85
2023-03-19T10:09:28.359Z,3.55
2023-03-19T10:14:00.711Z,3.53
2023-03-19T10:18:10.955Z,3.92
2023-03-19T10:22:19.192Z,5.28
2023-03-19T10:26:26.377Z,4.80
2023-03-19T10:34:41.502Z,3.45
2023-03-19T10:38:44.119Z,5.30
2023-03-19T10:43:04.116Z,3.70
2023-03-19T10:47:14.499Z,4.07
2023-03-19T10:51:38.447Z,3.70
2023-03-19T10:56:04.896Z,4.18
2023-03-19T11:00:15.571Z,1.73
2023-03-19T11:04:18.488Z,5.87
2023-03-19T11:08:34.877Z,7.80
2023-03-19T11:12:40.008Z,6.85
2023-03-19T11:17:15.857Z,5.32
2023-03-19T11:21:30.876Z,5.70
2023-03-19T11:25:44.194Z,5.18
2023-03-19T11:29:46.386Z,6.65
2023-03-19T11:34:20.319Z,6.87
2023-03-19T11:38:37.858Z,6.05
2023-03-19T11:47:17.806Z,6.05
2023-03-19T11:51:42.746Z,8.27
2023-03-19T11:56:08.026Z,6.97
2023-03-19T12:00:22.601Z,7.15
2023-03-19T12:04:47.318Z,7.25
2023-03-19T12:08:59.062Z,6.45
2023-03-19T12:13:08.585Z,6.80
2023-03-19T12:17:43.802Z,7.45
2023-03-19T12:22:25.542Z,7.93
2023-03-19T12:26:49.341Z,6.47
2023-03-19T12:31:03.204Z,7.25
2023-03-19T12:35:13.820Z,5.90
2023-03-19T12:39:31.811Z,6.00
2023-03-19T12:44:01.749Z,5.95
2023-03-19T12:48:10.194Z,5.85
2023-03-19T12:52:28.744Z,4.95
2023-03-19T12:56:40.119Z,7.30
2023-03-19T13:01:03.515Z,5.68
2023-03-19T13:05:53.091Z,4.53
2023-03-19T13:10:11.354Z,3.83
2023-03-19T13:14:25.508Z,3.12
2023-03-19T13:18:52.759Z,3.10
2023-03-19T13:23:02.262Z,3.05
2023-03-19T13:27:06.523Z,4.57
2023-03-19T13:31:24.854Z,3.15
2023-03-19T13:35:41.556Z,5.43
2023-03-19T13:39:44.962Z,4.20
2023-03-19T13:43:53.861Z,4.22
2023-03-19T13:47:59.069Z,3.60
2023-03-19T13:52:09.905Z,3.53
2023-03-19T13:56:29.147Z,4.30
2023-03-19T14:00:46.939Z,5.00
2023-03-19T14:05:06.940Z,5.50
2023-03-19T14:09:35.898Z,4.80
2023-03-19T14:13:41.405Z,4.62
2023-03-19T14:18:07.769Z,4.75
2023-03-19T14:22:31.183Z,3.97
2023-03-19T14:26:32.908Z,5.07
2023-03-19T14:30:42.290Z,5.75
2023-03-19T14:34:45.897Z,5.37
2023-03-19T14:39:03.192Z,5.22
2023-03-19T14:43:24.950Z,3.65
2023-03-19T14:47:41.461Z,5.57
2023-03-19T14:52:02.101Z,5.65
2023-03-19T14:56:14.234Z,6.82
2023-03-19T15:00:18.256Z,5.12
2023-03-19T15:04:25.576Z,6.10
2023-03-19T15:08:31.142Z,8.40
2023-03-19T15:13:06.521Z,4.72
2023-03-19T15:17:21.496Z,4.75
2023-03-19T15:21:23.190Z,4.90
2023-03-19T15:25:24.908Z,3.42
2023-03-19T15:29:37.773Z,4.47
2023-03-19T15:33:44.089Z,3.47
2023-03-19T15:37:53.033Z,4.07
2023-03-19T15:41:56.003Z,3.58
2023-03-19T15:45:58.083Z,3.75
2023-03-19T15:50:03.760Z,3.92
2023-03-19T15:54:06.163Z,2.50
2023-03-19T15:58:23.559Z,4.85
2023-03-19T16:02:34.083Z,4.30
2023-03-19T16:06:40.274Z,1.95
2023-03-19T16:10:43.623Z,4.45
2023-03-19T16:14:45.988Z,3.42
2023-03-19T16:18:56.377Z,2.90
2023-03-19T16:23:00.929Z,3.65
2023-03-19T16:27:06.368Z,5.25
2023-03-19T16:31:21.370Z,5.82
2023-03-19T16:35:23.907Z,7.07
2023-03-19T16:39:30.007Z,7.28
2023-03-19T16:43:36.689Z,6.45
2023-03-19T16:47:38.338Z,6.12
2023-03-19T16:51:40.433Z,6.72
2023-03-19T16:55:42.376Z,7.37
2023-03-19T16:59:46.291Z,4.68
2023-03-19T17:03:49.457Z,4.53
2023-03-19T17:07:51.415Z,8.05
2023-03-19T17:11:55.094Z,6.78
2023-03-19T17:16:03.389Z,5.65
2023-03-19T17:20:06.044Z,7.15
2023-03-19T17:24:31.490Z,5.35
2023-03-19T17:28:33.417Z,7.43
2023-03-19T17:32:35.250Z,3.97
2023-03-19T17:36:37.104Z,5.72
2023-03-19T17:40:38.736Z,6.90
2023-03-19T17:44:40.426Z,6.85
2023-03-19T17:48:42.173Z,6.40
2023-03-19T17:52:46.579Z,6.62
2023-03-19T17:56:48.595Z,7.10
2023-03-19T18:00:51.222Z,5.72
2023-03-19T18:04:53.419Z,6.93
2023-03-19T18:08:55.242Z,6.28
2023-03-19T18:12:59.868Z,6.18
2023-03-19T18:17:01.844Z,7.45
2023-03-19T18:21:03.671Z,6.95
2023-03-19T18:25:05.843Z,4.62
2023-03-19T18:29:07.593Z,5.78
2023-03-19T18:33:16.371Z,5.47
2023-03-19T18:37:18.490Z,5.28
2023-03-19T18:41:21.394Z,5.70
2023-03-19T18:45:23.328Z,4.82
2023-03-19T18:49:26.599Z,4.90
2023-03-19T18:53:29.970Z,6.25
2023-03-19T18:57:32.023Z,4.57
2023-03-19T19:01:33.716Z,4.75
2023-03-19T19:05:36.166Z,5.72
2023-03-19T19:09:37.901Z,4.40
2023-03-19T19:13:55.030Z,4.60
2023-03-19T19:17:57.855Z,3.87
2023-03-19T19:21:59.502Z,5.37
2023-03-19T19:26:01.358Z,5.40
2023-03-19T19:30:03.353Z,4.68
2023-03-19T19:34:05.014Z,4.05
2023-03-19T19:38:06.784Z,3.65
2023-03-19T19:42:19.798Z,5.32
2023-03-19T19:46:23.519Z,3.72
2023-03-19T19:50:27.511Z,4.78
2023-03-19T19:54:29.197Z,4.18
2023-03-19T19:58:32.764Z,7.68
2023-03-19T20:02:34.426Z,19.05
2023-03-19T20:06:36.470Z,26.33
2023-03-19T20:10:38.762Z,28.90
2023-03-19T20:14:40.925Z,24.50
2023-03-19T20:18:43.547Z,25.67
2023-03-19T20:22:46.254Z,29.05
2023-03-19T20:26:47.984Z,27.95
2023-03-19T20:30:51.359Z,31.15
2023-03-19T20:34:53.228Z,25.10
2023-03-19T20:38:54.909Z,23.27
2023-03-19T20:42:56.889Z,26.40
2023-03-19T20:46:58.913Z,27.20
2023-03-19T20:51:02.341Z,24.27
2023-03-19T20:55:04.327Z,28.20
2023-03-19T20:59:06.012Z,24.77
2023-03-19T21:03:15.711Z,20.67
2023-03-19T21:07:33.209Z,21.70
2023-03-19T21:11:40.718Z,23.52
2023-03-19T21:15:43.744Z,28.98
2023-03-19T21:19:45.841Z,29.15
2023-03-19T21:24:11.674Z,27.27
2023-03-19T21:28:29.091Z,26.42
2023-03-19T21:32:31.585Z,26.65
2023-03-19T21:36:33.269Z,31.35
2023-03-19T21:40:34.989Z,29.12
2023-03-19T21:44:37.809Z,28.30
2023-03-19T21:48:39.889Z,28.98
2023-03-19T21:52:56.566Z,29.65
2023-03-19T21:56:59.350Z,32.17
2023-03-19T22:01:02.382Z,30.20
2023-03-19T22:05:17.205Z,33.10
2023-03-19T22:09:18.811Z,30.37
2023-03-19T22:13:27.843Z,32.10
2023-03-19T22:17:30.839Z,30.62
2023-03-19T22:21:34.110Z,32.33
2023-03-19T22:25:39.973Z,29.45
2023-03-19T22:29:45.824Z,30.58
2023-03-19T22:33:48.576Z,27.15
2023-03-19T22:37:50.467Z,26.85
2023-03-19T22:41:52.183Z,24.73
2023-03-19T22:45:57.217Z,25.85
2023-03-19T22:49:59.280Z,23.02
2023-03-19T22:54:01.508Z,19.52
2023-03-19T22:58:03.146Z,18.05
2023-03-19T23:02:04.881Z,18.27
2023-03-19T23:06:29.080Z,15.48
2023-03-19T23:10:33.026Z,15.45
2023-03-19T23:14:36.526Z,13.45
2023-03-19T23:18:38.343Z,14.57
2023-03-19T23:22:40.277Z,13.77
2023-03-19T23:26:45.206Z,14.20
2023-03-19T23:30:48.300Z,11.43
2023-03-19T23:34:59.527Z,12.25
2023-03-19T23:39:03.948Z,11.65
2023-03-19T23:43:07.375Z,12.10
2023-03-19T23:47:09.250Z,11.10
2023-03-19T23:51:14.156Z,13.55
2023-03-19T23:55:16.124Z,11.70
2023-03-19T23:59:17.788Z,13.20
